Terminal Aerodrome Forecast
Issued by NWS Memphis, TN

Home | Current Version | Previous Version | Text Only | Print | Product List | Glossary On
Versions: 1 2 3 4 5 6 7 8 9 10 11 12 13 14 15 16 17 18 19
000
FTUS44 KMEG 241130
TAFJBR
TAF
KJBR 241130Z 2412/2512 31003KT P6SM BKN150
     FM241300 30008KT P6SM BKN080
     FM241700 31010G18KT P6SM -SHRA VCTS BKN040CB
     FM250000 30005KT P6SM SCT050 BKN100
     FM250300 28003KT P6SM SKC
      TEMPO 2509/2512 4SM BR=

USA.gov is the U.S. government's official web portal to all federal, state and local government web resources and services.